LPAZ/SMA METAR and TAF weather

Enter ICAO airport designator
Station Type Date Time Source
LPAZ METAR 2020/09/22 16:30 UTC NOAA

LPAZ 221630Z 02017KT 9999 SCT018 23/17 Q1016


Station Type Date Time Source
LPAZ Decoded METAR 2020/09/22 16:30 UTC NOAA

Santa Maria Acores , Portugal (LPAZ) 36-58N 025-10W 100M
Sep 22, 2020 - 12:30 PM EDT / 2020.09.22 1630 UTC
Wind: from the NNE (020 degrees) at 20 MPH (17 KT):0
Visibility: greater than 7 mile(s):0
Sky conditions: partly cloudy
Temperature: 73 F (23 C)
Dew Point: 62 F (17 C)
Relative Humidity: 68%
Pressure (altimeter): 30.00 in. Hg (1016 hPa)
ob: LPAZ 221630Z 02017KT 9999 SCT018 23/17 Q1016
cycle: 16

Station Type Date Time Source
LPAZ TAF 2020/09/22 12:18 UTC NOAA

TAF TAF LPAZ 221100Z 2212/2318 02017KT 9999 FEW018 SCT025
TEMPO 2212/2224 02020G30KT
BECMG 2302/2304 02013KT SCT012 BKN030
TEMPO 2304/2318 5000 RADZ BR SCT006 BKN012

Example: see airport list